sensor_id;sensor_type;location;lat;lon;timestamp;temperature;humidity
36690;DHT22;22676;51.120;3.702;2023-02-15T00:00:00;24.60;35.40
36690;DHT22;22676;51.120;3.702;2023-02-15T00:02:26;24.50;35.40
36690;DHT22;22676;51.120;3.702;2023-02-15T00:04:52;24.60;35.40
36690;DHT22;22676;51.120;3.702;2023-02-15T00:07:18;24.50;35.40
36690;DHT22;22676;51.120;3.702;2023-02-15T00:09:45;24.50;35.50
36690;DHT22;22676;51.120;3.702;2023-02-15T00:12:10;24.50;35.60
36690;DHT22;22676;51.120;3.702;2023-02-15T00:14:36;24.50;35.60
36690;DHT22;22676;51.120;3.702;2023-02-15T00:17:02;24.50;35.60
36690;DHT22;22676;51.120;3.702;2023-02-15T00:19:27;24.50;35.60
36690;DHT22;22676;51.120;3.702;2023-02-15T00:21:53;24.50;35.60
36690;DHT22;22676;51.120;3.702;2023-02-15T00:24:19;24.50;35.50
36690;DHT22;22676;51.120;3.702;2023-02-15T00:26:45;24.60;35.00
36690;DHT22;22676;51.120;3.702;2023-02-15T00:29:11;24.70;34.40
36690;DHT22;22676;51.120;3.702;2023-02-15T00:31:37;24.80;34.30
36690;DHT22;22676;51.120;3.702;2023-02-15T00:34:04;24.60;34.70
36690;DHT22;22676;51.120;3.702;2023-02-15T00:36:29;24.40;34.90
36690;DHT22;22676;51.120;3.702;2023-02-15T00:38:55;24.40;35.20
36690;DHT22;22676;51.120;3.702;2023-02-15T00:41:21;24.40;35.30
36690;DHT22;22676;51.120;3.702;2023-02-15T00:43:46;24.40;35.30
36690;DHT22;22676;51.120;3.702;2023-02-15T00:46:12;24.40;35.30
36690;DHT22;22676;51.120;3.702;2023-02-15T00:48:38;24.30;35.30
36690;DHT22;22676;51.120;3.702;2023-02-15T00:51:03;24.40;35.20
36690;DHT22;22676;51.120;3.702;2023-02-15T00:53:29;24.40;35.20
36690;DHT22;22676;51.120;3.702;2023-02-15T00:55:55;24.40;35.30
36690;DHT22;22676;51.120;3.702;2023-02-15T00:58:20;24.40;35.30
36690;DHT22;22676;51.120;3.702;2023-02-15T01:00:46;24.40;35.30
36690;DHT22;22676;51.120;3.702;2023-02-15T01:03:12;24.30;35.30
36690;DHT22;22676;51.120;3.702;2023-02-15T01:05:38;24.30;35.20
36690;DHT22;22676;51.120;3.702;2023-02-15T01:08:04;24.40;35.20
36690;DHT22;22676;51.120;3.702;2023-02-15T01:10:29;24.40;35.30
36690;DHT22;22676;51.120;3.702;2023-02-15T01:12:55;24.30;35.20
36690;DHT22;22676;51.120;3.702;2023-02-15T01:15:21;24.30;35.20
36690;DHT22;22676;51.120;3.702;2023-02-15T01:17:47;24.30;35.30
36690;DHT22;22676;51.120;3.702;2023-02-15T01:20:18;24.20;35.30
36690;DHT22;22676;51.120;3.702;2023-02-15T01:22:44;24.20;35.30
36690;DHT22;22676;51.120;3.702;2023-02-15T01:25:09;24.20;35.30
36690;DHT22;22676;51.120;3.702;2023-02-15T01:27:35;24.40;34.50
36690;DHT22;22676;51.120;3.702;2023-02-15T01:30:00;24.50;34.20
36690;DHT22;22676;51.120;3.702;2023-02-15T01:32:26;24.40;34.00
36690;DHT22;22676;51.120;3.702;2023-02-15T01:34:52;24.20;34.60
36690;DHT22;22676;51.120;3.702;2023-02-15T01:37:17;24.10;34.90
36690;DHT22;22676;51.120;3.702;2023-02-15T01:39:43;24.10;35.00
36690;DHT22;22676;51.120;3.702;2023-02-15T01:42:11;24.10;35.00
36690;DHT22;22676;51.120;3.702;2023-02-15T01:45:20;24.10;35.00
36690;DHT22;22676;51.120;3.702;2023-02-15T01:50:17;24.10;35.00
36690;DHT22;22676;51.120;3.702;2023-02-15T01:52:49;24.10;35.00
36690;DHT22;22676;51.120;3.702;2023-02-15T01:55:16;24.10;35.00
36690;DHT22;22676;51.120;3.702;2023-02-15T01:57:41;24.20;35.00
36690;DHT22;22676;51.120;3.702;2023-02-15T02:00:07;24.10;34.90
36690;DHT22;22676;51.120;3.702;2023-02-15T02:02:33;24.10;34.90
36690;DHT22;22676;51.120;3.702;2023-02-15T02:05:00;24.10;35.00
36690;DHT22;22676;51.120;3.702;2023-02-15T02:07:29;24.10;35.00
36690;DHT22;22676;51.120;3.702;2023-02-15T02:09:57;24.10;35.10
36690;DHT22;22676;51.120;3.702;2023-02-15T02:12:22;24.10;35.10
36690;DHT22;22676;51.120;3.702;2023-02-15T02:14:49;24.10;35.00
36690;DHT22;22676;51.120;3.702;2023-02-15T02:41:00;23.80;34.90
36690;DHT22;22676;51.120;3.702;2023-02-15T02:46:13;23.80;35.10
36690;DHT22;22676;51.120;3.702;2023-02-15T02:48:40;23.70;35.10
36690;DHT22;22676;51.120;3.702;2023-02-15T02:51:05;23.70;35.10
36690;DHT22;22676;51.120;3.702;2023-02-15T02:53:31;23.60;35.20
36690;DHT22;22676;51.120;3.702;2023-02-15T02:55:59;23.60;35.20
36690;DHT22;22676;51.120;3.702;2023-02-15T02:58:36;23.60;35.30
36690;DHT22;22676;51.120;3.702;2023-02-15T03:01:19;23.50;35.30
36690;DHT22;22676;51.120;3.702;2023-02-15T03:03:47;23.50;35.60
36690;DHT22;22676;51.120;3.702;2023-02-15T03:06:16;23.50;35.50
36690;DHT22;22676;51.120;3.702;2023-02-15T03:08:45;23.50;35.50
36690;DHT22;22676;51.120;3.702;2023-02-15T03:11:11;23.40;35.50
36690;DHT22;22676;51.120;3.702;2023-02-15T03:13:36;23.40;35.50
36690;DHT22;22676;51.120;3.702;2023-02-15T03:16:02;23.40;35.60
36690;DHT22;22676;51.120;3.702;2023-02-15T03:18:51;23.40;36.20
36690;DHT22;22676;51.120;3.702;2023-02-15T03:21:24;23.30;35.70
36690;DHT22;22676;51.120;3.702;2023-02-15T03:23:52;23.30;35.70
36690;DHT22;22676;51.120;3.702;2023-02-15T03:26:20;23.30;35.30
36690;DHT22;22676;51.120;3.702;2023-02-15T03:28:46;23.30;34.90
36690;DHT22;22676;51.120;3.702;2023-02-15T03:31:13;23.20;34.70
36690;DHT22;22676;51.120;3.702;2023-02-15T03:33:40;23.10;35.20
36690;DHT22;22676;51.120;3.702;2023-02-15T03:36:24;23.00;35.40
36690;DHT22;22676;51.120;3.702;2023-02-15T03:41:31;23.00;36.30
36690;DHT22;22676;51.120;3.702;2023-02-15T03:43:58;23.00;35.70
36690;DHT22;22676;51.120;3.702;2023-02-15T03:48:58;22.90;35.70
36690;DHT22;22676;51.120;3.702;2023-02-15T03:51:29;22.90;35.60
36690;DHT22;22676;51.120;3.702;2023-02-15T03:53:58;22.90;35.70
36690;DHT22;22676;51.120;3.702;2023-02-15T03:56:25;22.90;35.60
36690;DHT22;22676;51.120;3.702;2023-02-15T03:58:50;22.90;35.60
36690;DHT22;22676;51.120;3.702;2023-02-15T04:04:19;22.90;35.80
36690;DHT22;22676;51.120;3.702;2023-02-15T04:06:45;22.90;35.70
36690;DHT22;22676;51.120;3.702;2023-02-15T04:09:11;22.90;35.80
36690;DHT22;22676;51.120;3.702;2023-02-15T04:11:55;22.80;35.70
36690;DHT22;22676;51.120;3.702;2023-02-15T04:14:21;22.80;35.80
36690;DHT22;22676;51.120;3.702;2023-02-15T04:17:05;22.80;35.80
36690;DHT22;22676;51.120;3.702;2023-02-15T04:19:31;22.70;35.80
36690;DHT22;22676;51.120;3.702;2023-02-15T04:22:15;22.70;35.90
36690;DHT22;22676;51.120;3.702;2023-02-15T04:24:59;22.70;35.90
36690;DHT22;22676;51.120;3.702;2023-02-15T04:27:41;22.70;35.20
36690;DHT22;22676;51.120;3.702;2023-02-15T04:30:07;22.70;34.90
36690;DHT22;22676;51.120;3.702;2023-02-15T04:32:33;22.70;35.20
36690;DHT22;22676;51.120;3.702;2023-02-15T04:34:59;22.50;35.30
36690;DHT22;22676;51.120;3.702;2023-02-15T04:37:25;22.50;35.70
36690;DHT22;22676;51.120;3.702;2023-02-15T04:39:50;22.50;35.80
36690;DHT22;22676;51.120;3.702;2023-02-15T04:42:16;22.50;35.80
36690;DHT22;22676;51.120;3.702;2023-02-15T04:44:42;22.50;35.80
36690;DHT22;22676;51.120;3.702;2023-02-15T04:47:07;22.50;35.80
36690;DHT22;22676;51.120;3.702;2023-02-15T04:49:33;22.40;35.80
36690;DHT22;22676;51.120;3.702;2023-02-15T04:51:58;22.40;35.90
36690;DHT22;22676;51.120;3.702;2023-02-15T04:54:24;22.40;35.90
36690;DHT22;22676;51.120;3.702;2023-02-15T04:56:49;22.40;35.90
36690;DHT22;22676;51.120;3.702;2023-02-15T04:59:15;22.40;35.90
36690;DHT22;22676;51.120;3.702;2023-02-15T05:01:41;22.30;36.30
36690;DHT22;22676;51.120;3.702;2023-02-15T05:04:06;22.10;36.70
36690;DHT22;22676;51.120;3.702;2023-02-15T05:06:32;22.00;36.50
36690;DHT22;22676;51.120;3.702;2023-02-15T05:08:57;22.00;36.70
36690;DHT22;22676;51.120;3.702;2023-02-15T05:11:26;22.00;36.70
36690;DHT22;22676;51.120;3.702;2023-02-15T05:13:52;22.10;36.50
36690;DHT22;22676;51.120;3.702;2023-02-15T05:16:18;22.20;36.40
36690;DHT22;22676;51.120;3.702;2023-02-15T05:18:43;22.20;36.20
36690;DHT22;22676;51.120;3.702;2023-02-15T05:21:09;22.30;36.00
36690;DHT22;22676;51.120;3.702;2023-02-15T05:23:34;22.40;35.80
36690;DHT22;22676;51.120;3.702;2023-02-15T05:26:00;22.60;35.60
36690;DHT22;22676;51.120;3.702;2023-02-15T05:28:44;22.90;34.10
36690;DHT22;22676;51.120;3.702;2023-02-15T05:31:14;23.00;33.90
36690;DHT22;22676;51.120;3.702;2023-02-15T05:33:40;22.90;34.70
36690;DHT22;22676;51.120;3.702;2023-02-15T05:36:05;22.80;34.80
36690;DHT22;22676;51.120;3.702;2023-02-15T05:38:31;22.80;34.90
36690;DHT22;22676;51.120;3.702;2023-02-15T05:40:57;22.80;34.90
36690;DHT22;22676;51.120;3.702;2023-02-15T05:43:22;22.90;34.90
36690;DHT22;22676;51.120;3.702;2023-02-15T05:45:48;22.80;35.10
36690;DHT22;22676;51.120;3.702;2023-02-15T05:48:14;22.90;35.40
36690;DHT22;22676;51.120;3.702;2023-02-15T05:50:40;23.00;35.50
36690;DHT22;22676;51.120;3.702;2023-02-15T05:53:06;23.10;35.80
36690;DHT22;22676;51.120;3.702;2023-02-15T05:55:31;23.20;35.80
36690;DHT22;22676;51.120;3.702;2023-02-15T05:57:57;23.30;35.90
36690;DHT22;22676;51.120;3.702;2023-02-15T06:00:22;23.30;35.90
36690;DHT22;22676;51.120;3.702;2023-02-15T06:02:48;23.40;35.80
36690;DHT22;22676;51.120;3.702;2023-02-15T06:05:14;23.50;35.80
36690;DHT22;22676;51.120;3.702;2023-02-15T06:07:42;23.50;35.80
36690;DHT22;22676;51.120;3.702;2023-02-15T06:10:07;23.60;35.60
36690;DHT22;22676;51.120;3.702;2023-02-15T06:12:33;23.70;35.40
36690;DHT22;22676;51.120;3.702;2023-02-15T06:14:58;23.80;35.30
36690;DHT22;22676;51.120;3.702;2023-02-15T06:17:24;23.80;35.30
36690;DHT22;22676;51.120;3.702;2023-02-15T06:19:49;23.80;35.40
36690;DHT22;22676;51.120;3.702;2023-02-15T06:22:15;23.80;35.20
36690;DHT22;22676;51.120;3.702;2023-02-15T06:24:41;23.90;35.00
36690;DHT22;22676;51.120;3.702;2023-02-15T06:27:08;24.10;34.20
36690;DHT22;22676;51.120;3.702;2023-02-15T06:29:34;24.30;33.90
36690;DHT22;22676;51.120;3.702;2023-02-15T06:32:00;24.30;32.90
36690;DHT22;22676;51.120;3.702;2023-02-15T06:34:25;24.20;34.20
36690;DHT22;22676;51.120;3.702;2023-02-15T06:36:51;24.00;34.50
36690;DHT22;22676;51.120;3.702;2023-02-15T06:39:16;24.00;34.70
36690;DHT22;22676;51.120;3.702;2023-02-15T06:41:42;24.10;34.70
36690;DHT22;22676;51.120;3.702;2023-02-15T06:44:07;24.10;34.60
36690;DHT22;22676;51.120;3.702;2023-02-15T06:46:33;24.10;34.60
36690;DHT22;22676;51.120;3.702;2023-02-15T06:48:58;24.20;34.60
36690;DHT22;22676;51.120;3.702;2023-02-15T06:51:24;24.20;34.50
36690;DHT22;22676;51.120;3.702;2023-02-15T06:53:49;24.30;34.50
36690;DHT22;22676;51.120;3.702;2023-02-15T06:56:15;24.40;34.50
36690;DHT22;22676;51.120;3.702;2023-02-15T06:58:40;24.40;34.30
36690;DHT22;22676;51.120;3.702;2023-02-15T07:01:07;24.50;34.40
36690;DHT22;22676;51.120;3.702;2023-02-15T07:03:33;24.50;34.40
36690;DHT22;22676;51.120;3.702;2023-02-15T07:06:00;24.50;34.20
36690;DHT22;22676;51.120;3.702;2023-02-15T07:08:26;24.50;34.30
36690;DHT22;22676;51.120;3.702;2023-02-15T07:10:52;24.60;34.10
36690;DHT22;22676;51.120;3.702;2023-02-15T07:13:18;24.70;34.20
36690;DHT22;22676;51.120;3.702;2023-02-15T07:15:44;24.70;34.20
36690;DHT22;22676;51.120;3.702;2023-02-15T07:18:10;24.80;34.00
36690;DHT22;22676;51.120;3.702;2023-02-15T07:20:36;24.80;34.10
36690;DHT22;22676;51.120;3.702;2023-02-15T07:23:02;24.80;34.10
36690;DHT22;22676;51.120;3.702;2023-02-15T07:25:27;24.80;34.20
36690;DHT22;22676;51.120;3.702;2023-02-15T07:28:00;25.20;32.50
36690;DHT22;22676;51.120;3.702;2023-02-15T07:30:26;25.30;31.70
36690;DHT22;22676;51.120;3.702;2023-02-15T07:32:56;25.20;33.10
36690;DHT22;22676;51.120;3.702;2023-02-15T07:35:47;25.00;33.30
36690;DHT22;22676;51.120;3.702;2023-02-15T07:38:13;25.00;33.40
36690;DHT22;22676;51.120;3.702;2023-02-15T07:40:38;24.90;33.40
36690;DHT22;22676;51.120;3.702;2023-02-15T07:43:04;25.00;33.30
36690;DHT22;22676;51.120;3.702;2023-02-15T07:45:29;25.10;33.00
36690;DHT22;22676;51.120;3.702;2023-02-15T07:47:55;25.20;33.40
36690;DHT22;22676;51.120;3.702;2023-02-15T07:50:21;25.20;32.90
36690;DHT22;22676;51.120;3.702;2023-02-15T07:52:46;25.20;32.80
36690;DHT22;22676;51.120;3.702;2023-02-15T07:55:12;25.20;32.90
36690;DHT22;22676;51.120;3.702;2023-02-15T07:57:41;25.10;33.10
36690;DHT22;22676;51.120;3.702;2023-02-15T08:00:07;25.00;33.20
36690;DHT22;22676;51.120;3.702;2023-02-15T08:02:32;24.90;33.40
36690;DHT22;22676;51.120;3.702;2023-02-15T08:04:59;24.90;33.30
36690;DHT22;22676;51.120;3.702;2023-02-15T08:07:24;24.80;33.60
36690;DHT22;22676;51.120;3.702;2023-02-15T08:09:50;24.50;33.90
36690;DHT22;22676;51.120;3.702;2023-02-15T08:12:15;24.50;34.30
36690;DHT22;22676;51.120;3.702;2023-02-15T08:14:41;24.40;34.50
36690;DHT22;22676;51.120;3.702;2023-02-15T08:17:06;24.30;34.50
36690;DHT22;22676;51.120;3.702;2023-02-15T08:19:32;24.20;34.60
36690;DHT22;22676;51.120;3.702;2023-02-15T08:22:00;24.20;34.70
36690;DHT22;22676;51.120;3.702;2023-02-15T08:24:27;24.20;34.70
36690;DHT22;22676;51.120;3.702;2023-02-15T08:26:53;24.20;34.60
36690;DHT22;22676;51.120;3.702;2023-02-15T08:29:20;24.20;34.50
36690;DHT22;22676;51.120;3.702;2023-02-15T08:31:47;24.20;34.30
36690;DHT22;22676;51.120;3.702;2023-02-15T08:34:14;24.20;34.20
36690;DHT22;22676;51.120;3.702;2023-02-15T08:36:40;24.10;34.30
36690;DHT22;22676;51.120;3.702;2023-02-15T08:39:06;24.10;34.40
36690;DHT22;22676;51.120;3.702;2023-02-15T08:41:35;24.20;34.40
36690;DHT22;22676;51.120;3.702;2023-02-15T08:44:02;24.20;34.40
36690;DHT22;22676;51.120;3.702;2023-02-15T08:46:30;24.10;34.40
36690;DHT22;22676;51.120;3.702;2023-02-15T08:48:56;24.10;34.50
36690;DHT22;22676;51.120;3.702;2023-02-15T08:51:26;24.00;34.60
36690;DHT22;22676;51.120;3.702;2023-02-15T08:53:53;23.90;34.70
36690;DHT22;22676;51.120;3.702;2023-02-15T08:56:20;24.00;34.60
36690;DHT22;22676;51.120;3.702;2023-02-15T08:58:46;24.00;34.80
36690;DHT22;22676;51.120;3.702;2023-02-15T09:01:12;24.00;34.80
36690;DHT22;22676;51.120;3.702;2023-02-15T09:03:38;24.00;34.90
36690;DHT22;22676;51.120;3.702;2023-02-15T09:06:04;23.80;35.10
36690;DHT22;22676;51.120;3.702;2023-02-15T09:08:30;23.80;35.20
36690;DHT22;22676;51.120;3.702;2023-02-15T09:11:09;23.80;35.10
36690;DHT22;22676;51.120;3.702;2023-02-15T09:13:36;24.00;35.00
36690;DHT22;22676;51.120;3.702;2023-02-15T09:16:02;24.00;35.00
36690;DHT22;22676;51.120;3.702;2023-02-15T09:18:32;24.00;35.00
36690;DHT22;22676;51.120;3.702;2023-02-15T09:21:06;24.00;35.00
36690;DHT22;22676;51.120;3.702;2023-02-15T09:23:31;23.90;35.40
36690;DHT22;22676;51.120;3.702;2023-02-15T09:26:01;23.90;35.40
36690;DHT22;22676;51.120;3.702;2023-02-15T09:28:26;24.10;34.90
36690;DHT22;22676;51.120;3.702;2023-02-15T09:30:52;24.10;34.40
36690;DHT22;22676;51.120;3.702;2023-02-15T09:33:18;24.10;34.80
36690;DHT22;22676;51.120;3.702;2023-02-15T09:35:43;23.90;35.00
36690;DHT22;22676;51.120;3.702;2023-02-15T09:38:09;23.90;35.10
36690;DHT22;22676;51.120;3.702;2023-02-15T09:40:38;23.90;35.20
36690;DHT22;22676;51.120;3.702;2023-02-15T09:43:15;23.80;35.30
36690;DHT22;22676;51.120;3.702;2023-02-15T10:03:52;23.90;36.10
36690;DHT22;22676;51.120;3.702;2023-02-15T10:06:24;24.00;35.50
36690;DHT22;22676;51.120;3.702;2023-02-15T10:11:24;23.80;34.70
36690;DHT22;22676;51.120;3.702;2023-02-15T10:14:12;23.70;35.20
36690;DHT22;22676;51.120;3.702;2023-02-15T10:16:46;23.50;35.70
36690;DHT22;22676;51.120;3.702;2023-02-15T10:19:20;23.60;35.60
36690;DHT22;22676;51.120;3.702;2023-02-15T10:21:58;23.70;35.60
36690;DHT22;22676;51.120;3.702;2023-02-15T10:26:51;23.90;35.00
36690;DHT22;22676;51.120;3.702;2023-02-15T10:29:37;24.00;34.70
36690;DHT22;22676;51.120;3.702;2023-02-15T10:34:58;23.80;34.90
36690;DHT22;22676;51.120;3.702;2023-02-15T10:40:08;23.70;35.10
36690;DHT22;22676;51.120;3.702;2023-02-15T10:50:32;23.90;35.00
36690;DHT22;22676;51.120;3.702;2023-02-15T11:05:39;23.90;35.40
36690;DHT22;22676;51.120;3.702;2023-02-15T11:08:07;23.90;35.20
36690;DHT22;22676;51.120;3.702;2023-02-15T11:13:04;24.00;35.30
36690;DHT22;22676;51.120;3.702;2023-02-15T11:15:32;23.90;35.80
36690;DHT22;22676;51.120;3.702;2023-02-15T11:23:15;23.80;35.90
36690;DHT22;22676;51.120;3.702;2023-02-15T11:25:43;24.00;36.30
36690;DHT22;22676;51.120;3.702;2023-02-15T11:28:11;24.20;35.60
36690;DHT22;22676;51.120;3.702;2023-02-15T11:30:42;24.30;35.30
36690;DHT22;22676;51.120;3.702;2023-02-15T11:33:24;24.20;35.10
36690;DHT22;22676;51.120;3.702;2023-02-15T11:36:03;24.00;35.50
36690;DHT22;22676;51.120;3.702;2023-02-15T11:38:31;24.00;35.60
36690;DHT22;22676;51.120;3.702;2023-02-15T11:41:20;24.10;36.00
36690;DHT22;22676;51.120;3.702;2023-02-15T11:44:06;24.10;35.60
36690;DHT22;22676;51.120;3.702;2023-02-15T11:46:30;24.10;35.70
36690;DHT22;22676;51.120;3.702;2023-02-15T11:48:55;24.10;35.80
36690;DHT22;22676;51.120;3.702;2023-02-15T11:51:22;24.30;35.70
36690;DHT22;22676;51.120;3.702;2023-02-15T11:53:48;24.30;35.50
36690;DHT22;22676;51.120;3.702;2023-02-15T11:56:18;24.20;35.60
36690;DHT22;22676;51.120;3.702;2023-02-15T12:06:29;24.00;37.00
36690;DHT22;22676;51.120;3.702;2023-02-15T12:08:55;24.10;37.00
36690;DHT22;22676;51.120;3.702;2023-02-15T12:11:26;24.20;36.70
36690;DHT22;22676;51.120;3.702;2023-02-15T12:13:55;24.40;36.60
36690;DHT22;22676;51.120;3.702;2023-02-15T12:16:21;24.40;36.80
36690;DHT22;22676;51.120;3.702;2023-02-15T12:18:47;24.50;36.60
36690;DHT22;22676;51.120;3.702;2023-02-15T12:21:23;24.50;36.40
36690;DHT22;22676;51.120;3.702;2023-02-15T12:23:50;24.60;36.30
36690;DHT22;22676;51.120;3.702;2023-02-15T12:26:53;24.70;36.20
36690;DHT22;22676;51.120;3.702;2023-02-15T12:29:25;24.60;35.40
36690;DHT22;22676;51.120;3.702;2023-02-15T12:31:52;24.60;35.30
36690;DHT22;22676;51.120;3.702;2023-02-15T12:34:38;24.70;35.90
36690;DHT22;22676;51.120;3.702;2023-02-15T12:37:23;24.80;35.90
36690;DHT22;22676;51.120;3.702;2023-02-15T12:39:57;24.80;35.90
36690;DHT22;22676;51.120;3.702;2023-02-15T12:42:23;24.90;35.90
36690;DHT22;22676;51.120;3.702;2023-02-15T12:44:54;25.00;35.90
36690;DHT22;22676;51.120;3.702;2023-02-15T12:47:19;25.00;36.00
36690;DHT22;22676;51.120;3.702;2023-02-15T12:50:04;25.00;36.20
36690;DHT22;22676;51.120;3.702;2023-02-15T12:52:29;25.10;36.10
36690;DHT22;22676;51.120;3.702;2023-02-15T12:54:55;25.10;36.10
36690;DHT22;22676;51.120;3.702;2023-02-15T12:57:34;25.20;36.30
36690;DHT22;22676;51.120;3.702;2023-02-15T13:00:04;25.30;36.50
36690;DHT22;22676;51.120;3.702;2023-02-15T13:05:29;25.30;36.80
36690;DHT22;22676;51.120;3.702;2023-02-15T13:07:56;25.30;36.90
36690;DHT22;22676;51.120;3.702;2023-02-15T13:10:36;25.40;37.00
36690;DHT22;22676;51.120;3.702;2023-02-15T13:13:02;25.40;36.90
36690;DHT22;22676;51.120;3.702;2023-02-15T13:15:35;25.60;36.50
36690;DHT22;22676;51.120;3.702;2023-02-15T13:18:02;25.60;36.80
36690;DHT22;22676;51.120;3.702;2023-02-15T13:20:28;25.60;36.70
36690;DHT22;22676;51.120;3.702;2023-02-15T13:22:57;25.60;36.80
36690;DHT22;22676;51.120;3.702;2023-02-15T13:25:28;25.60;36.40
36690;DHT22;22676;51.120;3.702;2023-02-15T13:27:55;25.60;36.00
36690;DHT22;22676;51.120;3.702;2023-02-15T13:30:26;25.50;35.90
36690;DHT22;22676;51.120;3.702;2023-02-15T13:38:15;25.30;37.40
36690;DHT22;22676;51.120;3.702;2023-02-15T13:41:03;25.30;37.90
36690;DHT22;22676;51.120;3.702;2023-02-15T13:54:02;25.10;40.40
36690;DHT22;22676;51.120;3.702;2023-02-15T13:56:34;25.00;40.30
36690;DHT22;22676;51.120;3.702;2023-02-15T14:16:57;24.80;39.20
36690;DHT22;22676;51.120;3.702;2023-02-15T14:19:44;24.80;39.20
36690;DHT22;22676;51.120;3.702;2023-02-15T14:25:02;24.70;39.20
36690;DHT22;22676;51.120;3.702;2023-02-15T14:27:43;24.60;38.90
36690;DHT22;22676;51.120;3.702;2023-02-15T14:30:15;24.60;39.40
36690;DHT22;22676;51.120;3.702;2023-02-15T14:32:45;24.60;39.10
36690;DHT22;22676;51.120;3.702;2023-02-15T14:35:15;24.50;38.90
36690;DHT22;22676;51.120;3.702;2023-02-15T14:45:54;24.60;38.10
36690;DHT22;22676;51.120;3.702;2023-02-15T14:48:21;24.50;38.10
36690;DHT22;22676;51.120;3.702;2023-02-15T14:50:50;24.40;38.70
36690;DHT22;22676;51.120;3.702;2023-02-15T14:58:35;24.30;38.60
36690;DHT22;22676;51.120;3.702;2023-02-15T15:01:08;24.20;39.00
36690;DHT22;22676;51.120;3.702;2023-02-15T15:03:34;24.00;39.70
36690;DHT22;22676;51.120;3.702;2023-02-15T15:06:03;23.80;39.50
36690;DHT22;22676;51.120;3.702;2023-02-15T15:08:39;23.60;40.10
36690;DHT22;22676;51.120;3.702;2023-02-15T15:13:56;23.50;40.70
36690;DHT22;22676;51.120;3.702;2023-02-15T15:18:52;23.60;40.60
36690;DHT22;22676;51.120;3.702;2023-02-15T15:24:04;23.70;40.60
36690;DHT22;22676;51.120;3.702;2023-02-15T15:26:31;23.80;40.80
36690;DHT22;22676;51.120;3.702;2023-02-15T15:29:06;23.80;40.60
36690;DHT22;22676;51.120;3.702;2023-02-15T15:47:19;24.10;40.00
36690;DHT22;22676;51.120;3.702;2023-02-15T15:49:49;24.10;39.90
36690;DHT22;22676;51.120;3.702;2023-02-15T15:52:18;24.20;40.00
36690;DHT22;22676;51.120;3.702;2023-02-15T15:54:44;24.50;39.50
36690;DHT22;22676;51.120;3.702;2023-02-15T15:57:19;24.60;39.00
36690;DHT22;22676;51.120;3.702;2023-02-15T15:59:46;24.70;38.60
36690;DHT22;22676;51.120;3.702;2023-02-15T16:02:13;24.70;38.50
36690;DHT22;22676;51.120;3.702;2023-02-15T16:04:40;24.70;38.50
36690;DHT22;22676;51.120;3.702;2023-02-15T16:09:41;24.60;38.30
36690;DHT22;22676;51.120;3.702;2023-02-15T16:12:13;24.60;38.30
36690;DHT22;22676;51.120;3.702;2023-02-15T16:14:39;24.60;38.20
36690;DHT22;22676;51.120;3.702;2023-02-15T16:17:07;24.50;38.10
36690;DHT22;22676;51.120;3.702;2023-02-15T16:19:34;24.50;38.40
36690;DHT22;22676;51.120;3.702;2023-02-15T16:22:02;24.40;38.90
36690;DHT22;22676;51.120;3.702;2023-02-15T16:24:33;24.30;38.50
36690;DHT22;22676;51.120;3.702;2023-02-15T16:29:34;24.30;38.40
36690;DHT22;22676;51.120;3.702;2023-02-15T16:32:01;24.30;38.50
36690;DHT22;22676;51.120;3.702;2023-02-15T16:34:27;24.20;38.70
36690;DHT22;22676;51.120;3.702;2023-02-15T16:39:53;24.00;39.10
36690;DHT22;22676;51.120;3.702;2023-02-15T16:42:18;24.00;39.40
36690;DHT22;22676;51.120;3.702;2023-02-15T16:44:45;24.00;40.30
36690;DHT22;22676;51.120;3.702;2023-02-15T16:47:18;24.10;41.30
36690;DHT22;22676;51.120;3.702;2023-02-15T16:49:45;24.10;40.90
36690;DHT22;22676;51.120;3.702;2023-02-15T16:52:13;24.20;41.00
36690;DHT22;22676;51.120;3.702;2023-02-15T16:54:41;24.20;41.20
36690;DHT22;22676;51.120;3.702;2023-02-15T16:57:15;24.30;40.80
36690;DHT22;22676;51.120;3.702;2023-02-15T16:59:41;24.20;41.30
36690;DHT22;22676;51.120;3.702;2023-02-15T17:02:17;24.20;41.50
36690;DHT22;22676;51.120;3.702;2023-02-15T17:04:43;24.20;41.90
36690;DHT22;22676;51.120;3.702;2023-02-15T17:07:16;24.10;42.10
36690;DHT22;22676;51.120;3.702;2023-02-15T17:09:55;24.20;42.20
36690;DHT22;22676;51.120;3.702;2023-02-15T17:15:33;24.20;42.70
36690;DHT22;22676;51.120;3.702;2023-02-15T17:18:03;24.30;43.30
36690;DHT22;22676;51.120;3.702;2023-02-15T17:20:30;24.40;43.20
36690;DHT22;22676;51.120;3.702;2023-02-15T17:22:56;24.40;44.20
36690;DHT22;22676;51.120;3.702;2023-02-15T17:25:40;24.30;44.40
36690;DHT22;22676;51.120;3.702;2023-02-15T17:28:15;24.40;44.40
36690;DHT22;22676;51.120;3.702;2023-02-15T17:30:41;24.40;44.90
36690;DHT22;22676;51.120;3.702;2023-02-15T17:33:19;24.50;44.60
36690;DHT22;22676;51.120;3.702;2023-02-15T17:35:44;24.50;44.50
36690;DHT22;22676;51.120;3.702;2023-02-15T17:38:26;24.60;43.90
36690;DHT22;22676;51.120;3.702;2023-02-15T17:40:52;24.60;43.20
36690;DHT22;22676;51.120;3.702;2023-02-15T17:43:18;24.50;43.20
36690;DHT22;22676;51.120;3.702;2023-02-15T17:45:46;24.40;43.30
36690;DHT22;22676;51.120;3.702;2023-02-15T17:48:30;24.40;43.20
36690;DHT22;22676;51.120;3.702;2023-02-15T17:50:56;24.20;43.60
36690;DHT22;22676;51.120;3.702;2023-02-15T17:53:22;24.20;43.90
36690;DHT22;22676;51.120;3.702;2023-02-15T17:55:48;24.40;44.60
36690;DHT22;22676;51.120;3.702;2023-02-15T17:58:14;24.30;44.80
36690;DHT22;22676;51.120;3.702;2023-02-15T18:00:44;24.30;42.70
36690;DHT22;22676;51.120;3.702;2023-02-15T18:03:33;24.10;42.30
36690;DHT22;22676;51.120;3.702;2023-02-15T18:06:22;24.00;42.10
36690;DHT22;22676;51.120;3.702;2023-02-15T18:09:08;24.00;42.10
36690;DHT22;22676;51.120;3.702;2023-02-15T18:11:52;24.00;42.70
36690;DHT22;22676;51.120;3.702;2023-02-15T18:14:18;24.00;42.80
36690;DHT22;22676;51.120;3.702;2023-02-15T18:16:43;24.00;42.90
36690;DHT22;22676;51.120;3.702;2023-02-15T18:19:17;24.10;42.90
36690;DHT22;22676;51.120;3.702;2023-02-15T18:21:44;24.00;42.90
36690;DHT22;22676;51.120;3.702;2023-02-15T18:24:14;23.90;42.90
36690;DHT22;22676;51.120;3.702;2023-02-15T18:26:40;23.90;42.90
36690;DHT22;22676;51.120;3.702;2023-02-15T18:29:05;23.90;43.00
36690;DHT22;22676;51.120;3.702;2023-02-15T18:31:31;23.80;43.40
36690;DHT22;22676;51.120;3.702;2023-02-15T18:33:57;23.80;43.50
36690;DHT22;22676;51.120;3.702;2023-02-15T18:36:43;23.90;42.90
36690;DHT22;22676;51.120;3.702;2023-02-15T18:39:33;24.20;40.50
36690;DHT22;22676;51.120;3.702;2023-02-15T18:41:55;24.40;39.60
36690;DHT22;22676;51.120;3.702;2023-02-15T18:44:21;24.10;41.70
36690;DHT22;22676;51.120;3.702;2023-02-15T18:46:47;24.10;42.00
36690;DHT22;22676;51.120;3.702;2023-02-15T18:49:12;24.10;42.10